Time;durP1;ratioP1;P1;durP2;ratioP2;P2;SDS_P1;SDS_P2;PMS_P1;PMS_P2;Temp;Humidity;BMP_temperature;BMP_pressure;BME280_temperature;BME280_humidity;BME280_pressure;Samples;Min_cycle;Max_cycle;Signal;HPM_P1;HPM_P2
2023/12/04 00:00:19;;;;;;;44.47;42.33;;;4.80;85.50;;;;;;12608608;28;20453;-74
2023/12/04 00:06:22;;;;;;;46.97;44.63;;;4.80;85.40;;;;;;12608658;28;20035;-73
2023/12/04 00:12:23;;;;;;;50.08;47.72;;;4.80;85.30;;;;;;12590442;28;20454;-73
2023/12/04 00:18:25;;;;;;;54.25;51.75;;;4.80;85.30;;;;;;12607985;28;20035;-74
2023/12/04 00:24:26;;;;;;;65.18;62.00;;;4.80;85.10;;;;;;12607723;28;20087;-73
2023/12/04 00:30:28;;;;;;;59.88;57.03;;;4.80;85.20;;;;;;12608048;28;20035;-73
2023/12/04 00:36:29;;;;;;;51.65;49.30;;;4.80;85.20;;;;;;12607189;28;20347;-73
2023/12/04 00:42:31;;;;;;;45.20;42.92;;;4.70;85.20;;;;;;12607498;28;20032;-73
2023/12/04 00:48:32;;;;;;;40.05;38.17;;;4.70;85.10;;;;;;12607221;28;20350;-74
2023/12/04 00:54:34;;;;;;;49.38;47.13;;;4.70;85.20;;;;;;12606905;28;20366;-73
2023/12/04 01:00:36;;;;;;;46.13;43.88;;;4.70;85.10;;;;;;12605965;28;20351;-74
2023/12/04 01:06:37;;;;;;;37.70;35.60;;;4.60;85.10;;;;;;12587776;28;20470;-73
2023/12/04 01:12:39;;;;;;;32.03;30.35;;;4.60;85.20;;;;;;12605280;28;20036;-73
2023/12/04 01:18:41;;;;;;;52.67;49.83;;;4.50;85.20;;;;;;12605095;28;20039;-73
2023/12/04 01:24:43;;;;;;;47.38;44.75;;;4.50;85.10;;;;;;12586731;28;20438;-73
2023/12/04 01:30:44;;;;;;;51.08;48.63;;;4.60;85.10;;;;;;12604551;28;20024;-73
2023/12/04 01:36:46;;;;;;;61.72;58.83;;;4.60;84.90;;;;;;12604420;28;20343;-74
2023/12/04 01:42:49;;;;;;;40.50;38.38;;;4.50;84.90;;;;;;12604828;28;20039;-73
2023/12/04 01:48:53;;;;;;;46.95;44.85;;;4.50;84.80;;;;;;12603950;28;20032;-73
2023/12/04 01:54:58;;;;;;;37.33;35.17;;;4.50;84.90;;;;;;12586785;28;20487;-73
2023/12/04 02:01:01;;;;;;;55.90;53.38;;;4.50;85.10;;;;;;12603687;28;20032;-73
2023/12/04 02:07:04;;;;;;;63.40;60.65;;;4.50;84.80;;;;;;12604210;28;20024;-73
2023/12/04 02:13:07;;;;;;;47.47;45.03;;;4.40;84.70;;;;;;12568327;28;20048;-73
2023/12/04 02:19:12;;;;;;;45.20;42.90;;;4.40;84.80;;;;;;12604286;28;20428;-73
2023/12/04 02:25:15;;;;;;;43.05;41.13;;;4.30;84.70;;;;;;12595538;28;20048;-74
2023/12/04 02:31:19;;;;;;;36.55;34.78;;;4.20;84.60;;;;;;12612988;28;20035;-74
2023/12/04 02:37:22;;;;;;;38.53;36.65;;;4.10;84.80;;;;;;12612808;28;20366;-73
2023/12/04 02:43:24;;;;;;;41.53;39.50;;;4.00;84.70;;;;;;12612545;28;20024;-74
2023/12/04 02:49:25;;;;;;;33.67;31.70;;;4.00;84.70;;;;;;12594409;28;20044;-73
2023/12/04 02:55:27;;;;;;;36.15;34.17;;;4.00;84.50;;;;;;12594175;28;20036;-74
2023/12/04 03:01:29;;;;;;;39.15;36.95;;;4.00;84.60;;;;;;12611691;28;20433;-74
2023/12/04 03:07:30;;;;;;;38.70;36.58;;;4.10;84.60;;;;;;12611344;28;20036;-74
2023/12/04 03:13:32;;;;;;;48.47;46.03;;;4.00;84.50;;;;;;12610996;28;20439;-74
2023/12/04 03:19:33;;;;;;;39.47;37.42;;;4.00;84.70;;;;;;12592832;28;20063;-73
2023/12/04 03:25:35;;;;;;;31.40;29.45;;;3.90;84.60;;;;;;12610637;28;20033;-73
2023/12/04 03:31:38;;;;;;;36.63;34.67;;;3.90;85.10;;;;;;12608822;28;20422;-73
2023/12/04 03:37:40;;;;;;;28.60;27.08;;;3.80;85.30;;;;;;12592118;28;20040;-73
2023/12/04 03:43:42;;;;;;;30.60;28.90;;;3.90;85.00;;;;;;12609745;28;20044;-73
2023/12/04 03:49:43;;;;;;;33.50;31.80;;;4.00;84.90;;;;;;12591512;28;20032;-73
2023/12/04 03:55:44;;;;;;;28.80;27.35;;;4.00;84.90;;;;;;12609262;28;20035;-73
2023/12/04 04:01:46;;;;;;;36.05;34.17;;;4.00;85.00;;;;;;12608907;28;20367;-73
2023/12/04 04:07:48;;;;;;;42.25;40.08;;;4.10;85.00;;;;;;12608627;28;20032;-73
2023/12/04 04:13:49;;;;;;;36.72;34.92;;;4.20;84.70;;;;;;12608236;28;20044;-73
2023/12/04 04:19:51;;;;;;;53.40;50.72;;;4.30;84.30;;;;;;12590711;28;20036;-73
2023/12/04 04:25:52;;;;;;;72.38;69.18;;;4.50;84.20;;;;;;12609004;28;20032;-73
2023/12/04 04:31:54;;;;;;;47.75;45.28;;;4.60;84.20;;;;;;12607365;28;20323;-73
2023/12/04 04:37:55;;;;;;;51.72;49.00;;;4.40;83.90;;;;;;12607170;28;20028;-73
2023/12/04 04:43:57;;;;;;;31.88;30.15;;;4.40;83.70;;;;;;12607052;28;20362;-73
2023/12/04 04:49:58;;;;;;;53.08;50.42;;;4.30;83.70;;;;;;12606329;28;20443;-73
2023/12/04 04:56:00;;;;;;;38.08;36.25;;;4.40;83.70;;;;;;12606214;28;20035;-73
2023/12/04 05:02:01;;;;;;;57.88;55.20;;;4.60;83.80;;;;;;12605885;28;20044;-73
2023/12/04 05:08:03;;;;;;;56.58;53.92;;;4.60;83.40;;;;;;12605720;28;20036;-73
2023/12/04 05:14:05;;;;;;;60.33;57.40;;;4.60;83.10;;;;;;12605304;28;20347;-73
2023/12/04 05:20:07;;;;;;;41.58;39.38;;;4.50;82.80;;;;;;12587093;28;20107;-73
2023/12/04 05:26:09;;;;;;;44.10;41.65;;;4.40;82.50;;;;;;12587211;28;20040;-73
2023/12/04 05:32:10;;;;;;;52.33;49.75;;;4.30;82.70;;;;;;12586925;28;20537;-73
2023/12/04 05:38:12;;;;;;;57.15;54.50;;;4.30;82.80;;;;;;12604344;28;20039;-73
2023/12/04 05:44:14;;;;;;;57.90;55.30;;;4.40;82.50;;;;;;12586649;28;20366;-73
2023/12/04 05:50:15;;;;;;;58.10;55.22;;;4.10;82.60;;;;;;12586091;28;20350;-73
2023/12/04 05:56:17;;;;;;;54.65;51.85;;;4.20;83.00;;;;;;12603094;28;20037;-73
2023/12/04 06:02:19;;;;;;;48.42;45.65;;;4.40;82.60;;;;;;12585769;28;20347;-73
2023/12/04 06:08:20;;;;;;;52.72;49.95;;;4.50;82.40;;;;;;12585661;28;20035;-72
2023/12/04 06:14:22;;;;;;;50.10;47.25;;;4.50;82.10;;;;;;12569061;28;20048;-73
2023/12/04 06:20:25;;;;;;;73.97;70.25;;;4.70;82.10;;;;;;12605321;28;20504;-72
2023/12/04 06:26:49;;;;;;;80.38;76.50;;;4.80;81.60;;;;;;12585422;28;20119;-72
2023/12/04 06:32:51;;;;;;;58.47;55.70;;;4.70;81.50;;;;;;12585081;28;20033;-73
2023/12/04 06:39:19;;;;;;;66.95;63.28;;;4.90;81.60;;;;;;12585600;28;20033;-72
2023/12/04 06:45:23;;;;;;;56.38;53.13;;;4.90;81.20;;;;;;12584423;28;20028;-72
2023/12/04 06:51:25;;;;;;;44.75;42.30;;;5.00;80.90;;;;;;12578358;22;20439;-73
2023/12/04 06:57:26;;;;;;;83.13;78.97;;;5.10;80.70;;;;;;12582698;28;20033;-72
2023/12/04 07:03:29;;;;;;;108.32;103.28;;;5.20;80.80;;;;;;12571715;28;20037;-73
2023/12/04 07:09:36;;;;;;;54.78;51.83;;;5.20;80.60;;;;;;12579467;28;20052;-73
2023/12/04 07:15:39;;;;;;;63.53;60.17;;;5.00;80.80;;;;;;12610871;28;20423;-73
2023/12/04 07:21:54;;;;;;;56.67;53.75;;;5.00;80.90;;;;;;12589335;28;20032;-73
2023/12/04 07:27:57;;;;;;;113.97;108.63;;;5.20;80.80;;;;;;12610575;28;20439;-73
2023/12/04 07:34:01;;;;;;;75.65;71.72;;;5.30;80.70;;;;;;12592277;28;20051;-73
2023/12/04 07:40:05;;;;;;;108.15;102.85;;;5.40;80.60;;;;;;12609914;28;20028;-73
2023/12/04 07:46:10;;;;;;;99.18;94.13;;;5.40;80.60;;;;;;12610198;28;20032;-73
2023/12/04 07:52:11;;;;;;;81.25;76.57;;;5.40;80.90;;;;;;12609908;28;20374;-72
2023/12/04 07:58:13;;;;;;;107.57;102.28;;;5.70;81.30;;;;;;12591212;28;20025;-72
2023/12/04 08:04:14;;;;;;;86.22;82.13;;;5.80;80.90;;;;;;12590862;28;20035;-72
2023/12/04 08:10:16;;;;;;;80.05;76.10;;;5.90;80.80;;;;;;12608449;28;20055;-72
2023/12/04 08:16:19;;;;;;;112.93;107.68;;;5.90;80.70;;;;;;12573678;28;20032;-72
2023/12/04 08:22:21;;;;;;;101.38;96.15;;;5.60;81.00;;;;;;12589808;28;20043;-72
2023/12/04 08:28:23;;;;;;;90.15;85.47;;;5.60;82.10;;;;;;12559814;28;20029;-72
2023/12/04 08:34:24;;;;;;;93.55;88.57;;;5.70;82.20;;;;;;12501005;28;20458;-72
2023/12/04 08:40:26;;;;;;;103.20;97.85;;;5.60;82.80;;;;;;12490436;28;20060;-72
2023/12/04 08:46:27;;;;;;;92.22;86.97;;;5.60;82.90;;;;;;12512433;28;20537;-73
2023/12/04 08:52:30;;;;;;;87.10;82.57;;;5.60;83.60;;;;;;12538944;28;20033;-72
2023/12/04 08:58:32;;;;;;;87.97;83.63;;;5.70;83.50;;;;;;12556476;28;20033;-72
2023/12/04 09:04:34;;;;;;;99.05;94.05;;;5.60;83.60;;;;;;12539739;28;20043;-72
2023/12/04 09:10:35;;;;;;;92.60;88.38;;;5.70;83.90;;;;;;12538348;28;20363;-72
2023/12/04 09:16:37;;;;;;;88.60;83.97;;;6.00;83.70;;;;;;12537711;28;20041;-72
2023/12/04 09:22:40;;;;;;;74.65;70.78;;;6.20;83.70;;;;;;12555380;28;20041;-72
2023/12/04 09:28:42;;;;;;;65.95;62.65;;;6.30;83.50;;;;;;12537146;28;20045;-72
2023/12/04 09:34:43;;;;;;;122.38;116.38;;;6.30;83.40;;;;;;12537407;28;20459;-72
2023/12/04 09:40:45;;;;;;;82.47;78.63;;;6.20;83.30;;;;;;12536653;28;20044;-72
2023/12/04 09:46:48;;;;;;;61.28;58.17;;;5.90;84.00;;;;;;12554196;28;20048;-72
2023/12/04 09:52:50;;;;;;;93.57;89.30;;;5.90;84.10;;;;;;12553890;28;20028;-72
2023/12/04 09:58:57;;;;;;;86.15;82.00;;;5.80;84.40;;;;;;12554038;28;20032;-72
2023/12/04 10:04:58;;;;;;;79.95;76.07;;;6.10;84.60;;;;;;12588627;28;20028;-72
2023/12/04 10:11:01;;;;;;;49.65;47.05;;;6.40;84.30;;;;;;12603631;28;20040;-72
2023/12/04 10:17:16;;;;;;;68.35;65.05;;;6.50;84.20;;;;;;12603759;28;20036;-72
2023/12/04 10:23:17;;;;;;;59.65;56.58;;;6.50;84.20;;;;;;12569583;28;20343;-72
2023/12/04 10:29:19;;;;;;;69.47;65.80;;;6.60;84.60;;;;;;12603168;28;20036;-72
2023/12/04 10:35:22;;;;;;;40.05;37.78;;;6.60;84.50;;;;;;12585110;28;20036;-72
2023/12/04 10:41:24;;;;;;;49.17;46.50;;;6.60;84.80;;;;;;12605816;28;20036;-72
2023/12/04 10:47:28;;;;;;;55.70;53.05;;;6.90;85.00;;;;;;12612620;28;20130;-72
2023/12/04 10:53:30;;;;;;;34.80;32.83;;;7.20;84.80;;;;;;12594344;28;20299;-72
2023/12/04 10:59:38;;;;;;;50.42;47.67;;;7.40;84.70;;;;;;12611901;28;20043;-72
2023/12/04 11:05:41;;;;;;;49.92;47.22;;;7.50;84.60;;;;;;12611631;28;20028;-72
2023/12/04 11:11:51;;;;;;;58.67;55.92;;;7.50;84.60;;;;;;12611356;28;20039;-72
2023/12/04 11:18:00;;;;;;;40.35;38.08;;;7.50;84.50;;;;;;12593927;28;20029;-72
2023/12/04 11:24:03;;;;;;;47.35;45.03;;;7.70;84.70;;;;;;12611304;28;20435;-72
2023/12/04 11:30:06;;;;;;;49.70;47.13;;;7.70;84.70;;;;;;12610570;28;20033;-72
2023/12/04 11:36:17;;;;;;;56.22;53.33;;;7.70;84.70;;;;;;12610385;28;20033;-72
2023/12/04 11:42:25;;;;;;;44.03;41.70;;;7.60;84.70;;;;;;12610050;28;20039;-72
2023/12/04 11:48:27;;;;;;;36.70;34.58;;;7.60;84.80;;;;;;12592061;28;20043;-72
2023/12/04 11:54:49;;;;;;;64.80;61.75;;;7.60;84.40;;;;;;12590750;28;20048;-73
2023/12/04 12:00:52;;;;;;;96.05;91.90;;;7.30;85.00;;;;;;12575078;28;20048;-73
2023/12/04 12:07:05;;;;;;;59.33;56.38;;;7.40;85.20;;;;;;12608884;28;20025;-73
2023/12/04 12:13:07;;;;;;;75.78;72.22;;;7.70;84.80;;;;;;12589328;28;20037;-73
2023/12/04 12:19:08;;;;;;;60.97;57.90;;;7.90;84.70;;;;;;12589884;28;20029;-74
2023/12/04 12:25:11;;;;;;;47.97;45.55;;;8.00;84.20;;;;;;12588910;28;20044;-73
2023/12/04 12:31:13;;;;;;;52.78;50.17;;;7.60;84.20;;;;;;12589848;28;20044;-73
2023/12/04 12:37:15;;;;;;;54.85;52.10;;;7.50;85.60;;;;;;12608459;28;20024;-73
2023/12/04 12:43:23;;;;;;;51.63;49.10;;;7.80;85.40;;;;;;12572873;28;20048;-73
2023/12/04 12:49:26;;;;;;;54.60;52.08;;;7.80;84.90;;;;;;12606718;28;20466;-74
2023/12/04 12:55:28;;;;;;;49.25;46.78;;;7.40;84.90;;;;;;12606496;28;20067;-73
2023/12/04 13:01:33;;;;;;;44.78;42.58;;;7.60;85.90;;;;;;12561560;28;20467;-74
2023/12/04 13:08:15;;;;;;;51.92;49.55;;;7.90;85.30;;;;;;12488599;28;20052;-74
2023/12/04 13:14:17;;;;;;;60.30;56.97;;;8.10;84.70;;;;;;12553698;28;20033;-73
2023/12/04 13:20:18;;;;;;;48.88;46.22;;;8.20;84.70;;;;;;12564916;28;20032;-73
2023/12/04 13:26:21;;;;;;;30.55;28.67;;;8.40;85.10;;;;;;12557850;28;20028;-72
2023/12/04 13:32:23;;;;;;;22.48;20.73;;;8.60;84.90;;;;;;12565032;28;20048;-72
2023/12/04 13:38:24;;;;;;;24.63;22.95;;;8.60;84.50;;;;;;12555206;28;20021;-72
2023/12/04 13:44:26;;;;;;;31.02;29.15;;;8.40;84.30;;;;;;12536624;28;20045;-72
2023/12/04 13:50:28;;;;;;;35.92;33.83;;;8.20;84.60;;;;;;12537115;28;20040;-72
2023/12/04 13:56:44;;;;;;;47.85;45.47;;;8.30;84.50;;;;;;12554966;28;20025;-72
2023/12/04 14:02:46;;;;;;;26.58;24.98;;;8.50;84.20;;;;;;12554046;28;20431;-72
2023/12/04 14:08:47;;;;;;;22.10;20.55;;;8.40;84.10;;;;;;12536082;28;20033;-72
2023/12/04 14:14:50;;;;;;;41.17;39.05;;;8.00;84.10;;;;;;12553693;28;20446;-72
2023/12/04 14:20:52;;;;;;;39.53;37.13;;;7.70;84.80;;;;;;12535977;28;20033;-72
2023/12/04 14:26:54;;;;;;;40.22;38.13;;;7.70;85.10;;;;;;12535835;28;20033;-72
2023/12/04 14:32:55;;;;;;;57.10;54.13;;;7.60;85.00;;;;;;12553315;28;20428;-72
2023/12/04 14:39:00;;;;;;;50.85;48.28;;;7.60;85.10;;;;;;12503083;28;20037;-72
2023/12/04 14:45:02;;;;;;;62.65;59.53;;;7.90;84.90;;;;;;12519335;28;20063;-72
2023/12/04 14:51:05;;;;;;;48.47;46.00;;;8.10;84.40;;;;;;12537451;22;20057;-72
2023/12/04 15:10:22;;;;;;;17.33;16.02;;;8.40;83.50;;;;;;12602515;28;20435;-73
2023/12/04 15:22:15;;;;;;;41.45;39.03;;;8.40;83.10;;;;;;12602035;28;20033;-73
2023/12/04 15:28:17;;;;;;;33.45;31.20;;;8.50;82.90;;;;;;12605860;28;20032;-73
2023/12/04 15:34:21;;;;;;;23.98;22.17;;;8.50;82.90;;;;;;12610442;28;20468;-73
2023/12/04 15:40:22;;;;;;;30.27;28.35;;;8.70;82.50;;;;;;12610358;28;20036;-72
2023/12/04 15:46:26;;;;;;;22.10;20.50;;;8.60;82.30;;;;;;12592984;28;20037;-72
2023/12/04 15:52:28;;;;;;;24.58;22.73;;;8.50;82.20;;;;;;12609817;28;20036;-72
2023/12/04 15:58:32;;;;;;;40.10;37.47;;;7.90;82.70;;;;;;12591502;28;20032;-72
2023/12/04 16:04:35;;;;;;;90.78;86.28;;;7.50;83.60;;;;;;12591341;28;20037;-72
2023/12/04 16:10:37;;;;;;;50.58;47.63;;;7.20;84.10;;;;;;12590963;28;20434;-72
2023/12/04 16:16:38;;;;;;;67.03;63.60;;;7.20;84.00;;;;;;12608559;28;20036;-71
2023/12/04 16:22:42;;;;;;;83.68;79.70;;;7.40;83.60;;;;;;12608227;28;20032;-71
2023/12/04 16:28:44;;;;;;;134.90;129.18;;;7.50;84.00;;;;;;12607887;28;20032;-72
2023/12/04 16:34:45;;;;;;;122.28;117.05;;;7.70;84.20;;;;;;12589564;28;20044;-72
2023/12/04 16:40:47;;;;;;;67.05;63.80;;;7.90;84.30;;;;;;12588864;28;20032;-72
2023/12/04 16:46:55;;;;;;;64.60;61.45;;;8.00;84.80;;;;;;12607072;28;20037;-72
2023/12/04 16:52:56;;;;;;;47.85;45.50;;;8.20;84.50;;;;;;12607068;28;20029;-72
2023/12/04 16:58:58;;;;;;;19.48;17.98;;;8.20;84.60;;;;;;12606341;28;20439;-71
2023/12/04 17:05:00;;;;;;;72.28;69.10;;;8.20;84.20;;;;;;12588465;28;20052;-71
2023/12/04 17:11:02;;;;;;;93.00;88.55;;;7.90;83.60;;;;;;12588130;28;20394;-72
2023/12/04 17:17:04;;;;;;;97.07;92.65;;;7.40;84.10;;;;;;12605568;28;20458;-72
2023/12/04 17:23:05;;;;;;;76.22;72.93;;;7.60;84.20;;;;;;12605250;28;20351;-72
2023/12/04 17:29:07;;;;;;;93.22;89.05;;;7.70;83.70;;;;;;12570670;28;20358;-72
2023/12/04 17:35:10;;;;;;;122.60;117.25;;;7.70;83.50;;;;;;12571085;28;20036;-72
2023/12/04 17:41:12;;;;;;;75.00;71.35;;;7.90;83.80;;;;;;12586699;28;20041;-72
2023/12/04 17:47:14;;;;;;;58.83;55.65;;;7.90;83.50;;;;;;12569874;28;20036;-72
2023/12/04 17:53:16;;;;;;;59.30;56.25;;;8.00;83.40;;;;;;12585175;28;20043;-72
2023/12/04 17:59:17;;;;;;;95.00;90.95;;;7.80;83.00;;;;;;12585824;28;20351;-72
2023/12/04 18:05:22;;;;;;;95.35;91.03;;;7.70;83.30;;;;;;12569502;28;20052;-72
2023/12/04 18:11:24;;;;;;;107.57;102.90;;;7.60;83.20;;;;;;12585421;28;20386;-74
2023/12/04 18:17:27;;;;;;;69.82;66.53;;;7.60;83.00;;;;;;12585473;28;20032;-75
2023/12/04 18:23:29;;;;;;;48.30;45.70;;;7.70;83.00;;;;;;12568986;28;20044;-75
2023/12/04 18:29:31;;;;;;;85.13;81.18;;;7.60;82.80;;;;;;12585273;28;20028;-75
2023/12/04 18:35:33;;;;;;;107.43;102.88;;;7.30;83.10;;;;;;12602811;28;20033;-75
2023/12/04 18:41:35;;;;;;;102.90;98.00;;;7.30;83.10;;;;;;12604051;28;20024;-74
2023/12/04 18:47:41;;;;;;;115.90;110.72;;;7.40;83.20;;;;;;12602455;28;20032;-74
2023/12/04 18:53:42;;;;;;;160.93;153.82;;;7.70;82.90;;;;;;12602328;28;20029;-75
2023/12/04 18:59:44;;;;;;;114.45;109.45;;;7.80;82.90;;;;;;12567964;28;20021;-75
2023/12/04 19:05:48;;;;;;;102.72;98.10;;;7.80;82.60;;;;;;12592465;28;20442;-75
2023/12/04 19:11:49;;;;;;;114.30;109.07;;;7.80;82.60;;;;;;12611117;28;20032;-74
2023/12/04 19:17:51;;;;;;;63.45;60.10;;;7.70;82.40;;;;;;12611708;28;20035;-74
2023/12/04 19:23:53;;;;;;;64.68;60.95;;;7.50;82.30;;;;;;12593747;28;20360;-75
2023/12/04 19:29:55;;;;;;;61.78;57.85;;;7.30;82.50;;;;;;12592594;28;20047;-72
2023/12/04 19:35:57;;;;;;;91.03;86.72;;;7.20;82.60;;;;;;12610823;28;20033;-72
2023/12/04 19:41:59;;;;;;;96.93;92.53;;;7.20;82.60;;;;;;12609985;28;20032;-72
2023/12/04 19:48:00;;;;;;;84.43;80.20;;;7.00;82.90;;;;;;12609765;28;20091;-72
2023/12/04 19:54:05;;;;;;;85.30;80.95;;;7.00;83.10;;;;;;12609927;28;20055;-72
2023/12/04 20:00:07;;;;;;;128.10;122.40;;;6.90;83.00;;;;;;12609341;28;20028;-72
2023/12/04 20:06:15;;;;;;;90.80;86.65;;;7.10;82.90;;;;;;12609105;28;20036;-72
2023/12/04 20:12:17;;;;;;;109.80;105.00;;;7.20;82.60;;;;;;12590313;28;20039;-72
2023/12/04 20:18:19;;;;;;;142.40;136.05;;;7.30;82.60;;;;;;12608189;28;20351;-72
2023/12/04 20:24:21;;;;;;;153.55;146.68;;;7.30;82.50;;;;;;12590432;28;20024;-72
2023/12/04 20:30:22;;;;;;;102.22;97.57;;;7.30;82.40;;;;;;12589987;28;20036;-72
2023/12/04 20:36:24;;;;;;;67.28;63.70;;;7.40;82.50;;;;;;12589726;28;20032;-72
2023/12/04 20:42:26;;;;;;;73.43;69.57;;;7.30;82.30;;;;;;12607366;28;20044;-72
2023/12/04 20:48:28;;;;;;;68.15;64.68;;;7.40;82.60;;;;;;12607076;28;20029;-72
2023/12/04 20:54:30;;;;;;;87.43;82.75;;;7.50;82.40;;;;;;12572831;28;20041;-72
2023/12/04 21:00:34;;;;;;;57.67;54.60;;;7.50;82.30;;;;;;12606583;28;20139;-72
2023/12/04 21:06:35;;;;;;;133.45;127.22;;;7.50;82.40;;;;;;12572338;28;20110;-72
2023/12/04 21:12:37;;;;;;;97.07;92.43;;;7.60;82.50;;;;;;12606322;28;20040;-72
2023/12/04 21:18:39;;;;;;;82.20;78.45;;;7.60;82.70;;;;;;12606216;28;20032;-72
2023/12/04 21:24:41;;;;;;;105.75;100.93;;;7.60;82.50;;;;;;12605166;28;20029;-72
2023/12/04 21:30:43;;;;;;;128.40;122.78;;;7.60;82.40;;;;;;12605078;28;20047;-73
2023/12/04 21:36:45;;;;;;;142.68;136.20;;;7.50;82.80;;;;;;12605420;28;20047;-73
2023/12/04 21:42:46;;;;;;;162.23;155.48;;;7.60;82.90;;;;;;12586947;28;20470;-73
2023/12/04 21:48:48;;;;;;;94.32;89.45;;;7.60;83.00;;;;;;12605310;28;20032;-73
2023/12/04 21:54:50;;;;;;;92.28;88.03;;;7.50;83.00;;;;;;12604655;28;20041;-72
2023/12/04 22:00:52;;;;;;;85.70;81.63;;;7.50;82.90;;;;;;12604102;28;20029;-72
2023/12/04 22:06:53;;;;;;;86.95;82.75;;;7.50;83.10;;;;;;12586195;28;20036;-72
2023/12/04 22:12:55;;;;;;;64.65;60.95;;;7.50;83.50;;;;;;12604351;28;20457;-73
2023/12/04 22:18:57;;;;;;;90.32;85.88;;;7.50;83.40;;;;;;12586414;28;20032;-73
2023/12/04 22:24:59;;;;;;;148.48;141.60;;;7.50;83.70;;;;;;12569984;28;20041;-73
2023/12/04 22:31:00;;;;;;;105.68;100.57;;;7.50;83.60;;;;;;12603258;28;20040;-73
2023/12/04 22:37:02;;;;;;;115.05;109.78;;;7.50;83.40;;;;;;12587754;28;20351;-72
2023/12/04 22:43:04;;;;;;;82.65;78.55;;;7.40;83.30;;;;;;12595817;28;20138;-72
2023/12/04 22:49:06;;;;;;;118.07;112.68;;;7.30;83.10;;;;;;12594839;28;20044;-72
2023/12/04 22:55:08;;;;;;;112.03;107.13;;;7.30;83.50;;;;;;12619786;22;20447;-72
2023/12/04 23:01:09;;;;;;;114.85;109.20;;;7.20;83.40;;;;;;12612163;28;20036;-72
2023/12/04 23:07:15;;;;;;;120.13;114.38;;;7.20;84.00;;;;;;12611952;28;20035;-72
2023/12/04 23:13:20;;;;;;;94.47;90.00;;;7.20;84.00;;;;;;12594225;28;20040;-75
2023/12/04 23:19:22;;;;;;;91.88;87.55;;;7.20;83.80;;;;;;12611335;28;20025;-75
2023/12/04 23:25:24;;;;;;;63.55;60.33;;;7.20;84.00;;;;;;12611110;28;20037;-75
2023/12/04 23:31:25;;;;;;;110.57;105.47;;;7.20;83.80;;;;;;12593794;28;20028;-75
2023/12/04 23:37:33;;;;;;;97.18;92.75;;;7.10;84.10;;;;;;12592774;28;20320;-75
2023/12/04 23:43:35;;;;;;;92.25;87.88;;;7.10;83.90;;;;;;12610311;28;20453;-74
2023/12/04 23:49:36;;;;;;;102.05;97.38;;;7.00;84.30;;;;;;12610558;28;20465;-74
2023/12/04 23:55:38;;;;;;;82.72;78.55;;;7.00;84.40;;;;;;12609711;28;20055;-75
